<?xml version="1.0" encoding="UTF-8" standalone="no" ?>
<gpx xmlns="http://www.topografix.com/GPX/1/1" xmlns:xsi="http://www.w3.org/2001/XMLSchema-instance" xsi:schemaLocation="http://www.topografix.com/GPX/1/1 http://www.topografix.com/GPX/1/1/gpx.xsd" version="1.1" creator="VisuGPX - https://www.visugpx.com">
  <metadata>
    <name>Prepa MegaRando</name>
    <desc><![CDATA[Total: 4.9km]]></desc>
  </metadata>
  <trk>
    <name><![CDATA[Boucle de Sainte-Colombe à Saint-Magne-de-Castillon]]></name>
    <extensions>
      <line xmlns="http://www.topografix.com/GPX/gpx_style/0/2">
        <color>0000FF</color>
        <width>4</width>
      </line>
    </extensions>
    <trkseg>
      <trkpt lat="44.87819" lon="-0.06913">
        <ele>46</ele>
        <time>2021-07-16T09:44:16+02:00</time>
      </trkpt>
      <trkpt lat="44.87839" lon="-0.0696">
        <ele>45</ele>
        <time>2021-07-16T09:44:21+02:00</time>
      </trkpt>
      <trkpt lat="44.8784" lon="-0.06979">
        <ele>44</ele>
        <time>2021-07-16T09:44:26+02:00</time>
      </trkpt>
      <trkpt lat="44.87824" lon="-0.06995">
        <ele>44</ele>
        <time>2021-07-16T09:44:31+02:00</time>
      </trkpt>
      <trkpt lat="44.87814" lon="-0.06998">
        <ele>43</ele>
        <time>2021-07-16T09:44:36+02:00</time>
      </trkpt>
      <trkpt lat="44.8784" lon="-0.07116">
        <ele>36</ele>
        <time>2021-07-16T09:44:41+02:00</time>
      </trkpt>
      <trkpt lat="44.87857" lon="-0.07205">
        <ele>33</ele>
        <time>2021-07-16T09:44:46+02:00</time>
      </trkpt>
      <trkpt lat="44.87853" lon="-0.07306">
        <ele>31</ele>
        <time>2021-07-16T09:44:51+02:00</time>
      </trkpt>
      <trkpt lat="44.87865" lon="-0.0735">
        <ele>30</ele>
        <time>2021-07-16T09:44:56+02:00</time>
      </trkpt>
      <trkpt lat="44.8788" lon="-0.07371">
        <ele>30</ele>
        <time>2021-07-16T09:45:01+02:00</time>
      </trkpt>
      <trkpt lat="44.87882" lon="-0.07459">
        <ele>30</ele>
        <time>2021-07-16T09:45:06+02:00</time>
      </trkpt>
      <trkpt lat="44.87902" lon="-0.07512">
        <ele>31</ele>
        <time>2021-07-16T09:45:11+02:00</time>
      </trkpt>
      <trkpt lat="44.87952" lon="-0.07573">
        <ele>31</ele>
        <time>2021-07-16T09:45:16+02:00</time>
      </trkpt>
      <trkpt lat="44.87971" lon="-0.07591">
        <ele>31</ele>
        <time>2021-07-16T09:45:21+02:00</time>
      </trkpt>
      <trkpt lat="44.87978" lon="-0.0761">
        <ele>32</ele>
        <time>2021-07-16T09:45:26+02:00</time>
      </trkpt>
      <trkpt lat="44.87964" lon="-0.07631">
        <ele>32</ele>
        <time>2021-07-16T09:45:31+02:00</time>
      </trkpt>
      <trkpt lat="44.87945" lon="-0.07645">
        <ele>32</ele>
        <time>2021-07-16T09:45:36+02:00</time>
      </trkpt>
      <trkpt lat="44.8789" lon="-0.07656">
        <ele>32</ele>
        <time>2021-07-16T09:45:41+02:00</time>
      </trkpt>
      <trkpt lat="44.87833" lon="-0.07661">
        <ele>34</ele>
        <time>2021-07-16T09:45:46+02:00</time>
      </trkpt>
      <trkpt lat="44.87808" lon="-0.0767">
        <ele>34</ele>
        <time>2021-07-16T09:45:51+02:00</time>
      </trkpt>
      <trkpt lat="44.87775" lon="-0.07698">
        <ele>35</ele>
        <time>2021-07-16T09:45:56+02:00</time>
      </trkpt>
      <trkpt lat="44.8775" lon="-0.07722">
        <ele>36</ele>
        <time>2021-07-16T09:46:01+02:00</time>
      </trkpt>
      <trkpt lat="44.87734" lon="-0.0773">
        <ele>37</ele>
        <time>2021-07-16T09:46:06+02:00</time>
      </trkpt>
      <trkpt lat="44.87713" lon="-0.07732">
        <ele>37</ele>
        <time>2021-07-16T09:46:11+02:00</time>
      </trkpt>
      <trkpt lat="44.87698" lon="-0.0774">
        <ele>37</ele>
        <time>2021-07-16T09:46:16+02:00</time>
      </trkpt>
      <trkpt lat="44.87657" lon="-0.07682">
        <ele>33</ele>
        <time>2021-07-16T09:46:21+02:00</time>
      </trkpt>
      <trkpt lat="44.87609" lon="-0.07594">
        <ele>29</ele>
        <time>2021-07-16T09:46:26+02:00</time>
      </trkpt>
      <trkpt lat="44.87603" lon="-0.0759">
        <ele>29</ele>
        <time>2021-07-16T09:46:31+02:00</time>
      </trkpt>
      <trkpt lat="44.8757" lon="-0.07599">
        <ele>29</ele>
        <time>2021-07-16T09:46:36+02:00</time>
      </trkpt>
      <trkpt lat="44.87561" lon="-0.07596">
        <ele>29</ele>
        <time>2021-07-16T09:46:41+02:00</time>
      </trkpt>
      <trkpt lat="44.87555" lon="-0.07582">
        <ele>28</ele>
        <time>2021-07-16T09:46:46+02:00</time>
      </trkpt>
      <trkpt lat="44.87544" lon="-0.07584">
        <ele>28</ele>
        <time>2021-07-16T09:46:51+02:00</time>
      </trkpt>
      <trkpt lat="44.875" lon="-0.07618">
        <ele>27</ele>
        <time>2021-07-16T09:46:56+02:00</time>
      </trkpt>
      <trkpt lat="44.87469" lon="-0.07645">
        <ele>27</ele>
        <time>2021-07-16T09:47:01+02:00</time>
      </trkpt>
      <trkpt lat="44.87461" lon="-0.07643">
        <ele>27</ele>
        <time>2021-07-16T09:47:06+02:00</time>
      </trkpt>
      <trkpt lat="44.87439" lon="-0.07578">
        <ele>26</ele>
        <time>2021-07-16T09:47:11+02:00</time>
      </trkpt>
      <trkpt lat="44.87401" lon="-0.07614">
        <ele>26</ele>
        <time>2021-07-16T09:47:16+02:00</time>
      </trkpt>
      <trkpt lat="44.87335" lon="-0.07657">
        <ele>25</ele>
        <time>2021-07-16T09:47:21+02:00</time>
      </trkpt>
      <trkpt lat="44.87136" lon="-0.07838">
        <ele>25</ele>
        <time>2021-07-16T09:47:26+02:00</time>
      </trkpt>
      <trkpt lat="44.87115" lon="-0.07814">
        <ele>25</ele>
        <time>2021-07-16T09:47:31+02:00</time>
      </trkpt>
      <trkpt lat="44.87105" lon="-0.07778">
        <ele>24</ele>
        <time>2021-07-16T09:47:36+02:00</time>
      </trkpt>
      <trkpt lat="44.87073" lon="-0.0771">
        <ele>25</ele>
        <time>2021-07-16T09:47:41+02:00</time>
      </trkpt>
      <trkpt lat="44.87018" lon="-0.07609">
        <ele>29</ele>
        <time>2021-07-16T09:47:46+02:00</time>
      </trkpt>
      <trkpt lat="44.87037" lon="-0.07578">
        <ele>30</ele>
        <time>2021-07-16T09:47:51+02:00</time>
      </trkpt>
      <trkpt lat="44.87007" lon="-0.07504">
        <ele>34</ele>
        <time>2021-07-16T09:47:56+02:00</time>
      </trkpt>
      <trkpt lat="44.86999" lon="-0.07464">
        <ele>36</ele>
        <time>2021-07-16T09:48:01+02:00</time>
      </trkpt>
      <trkpt lat="44.86999" lon="-0.07431">
        <ele>37</ele>
        <time>2021-07-16T09:48:06+02:00</time>
      </trkpt>
      <trkpt lat="44.8699" lon="-0.07416">
        <ele>38</ele>
        <time>2021-07-16T09:48:11+02:00</time>
      </trkpt>
      <trkpt lat="44.86968" lon="-0.07398">
        <ele>39</ele>
        <time>2021-07-16T09:48:16+02:00</time>
      </trkpt>
      <trkpt lat="44.86936" lon="-0.07386">
        <ele>39</ele>
        <time>2021-07-16T09:48:21+02:00</time>
      </trkpt>
      <trkpt lat="44.86915" lon="-0.07378">
        <ele>39</ele>
        <time>2021-07-16T09:48:26+02:00</time>
      </trkpt>
      <trkpt lat="44.86895" lon="-0.07354">
        <ele>38</ele>
        <time>2021-07-16T09:48:31+02:00</time>
      </trkpt>
      <trkpt lat="44.86867" lon="-0.07325">
        <ele>36</ele>
        <time>2021-07-16T09:48:36+02:00</time>
      </trkpt>
      <trkpt lat="44.86829" lon="-0.07267">
        <ele>36</ele>
        <time>2021-07-16T09:48:41+02:00</time>
      </trkpt>
      <trkpt lat="44.86762" lon="-0.07118">
        <ele>35</ele>
        <time>2021-07-16T09:48:46+02:00</time>
      </trkpt>
      <trkpt lat="44.86743" lon="-0.07062">
        <ele>35</ele>
        <time>2021-07-16T09:48:51+02:00</time>
      </trkpt>
      <trkpt lat="44.86679" lon="-0.06974">
        <ele>33</ele>
        <time>2021-07-16T09:48:56+02:00</time>
      </trkpt>
      <trkpt lat="44.86665" lon="-0.0695">
        <ele>32</ele>
        <time>2021-07-16T09:49:01+02:00</time>
      </trkpt>
      <trkpt lat="44.86651" lon="-0.06917">
        <ele>32</ele>
        <time>2021-07-16T09:49:06+02:00</time>
      </trkpt>
      <trkpt lat="44.86626" lon="-0.06882">
        <ele>31</ele>
        <time>2021-07-16T09:49:11+02:00</time>
      </trkpt>
      <trkpt lat="44.86609" lon="-0.06849">
        <ele>31</ele>
        <time>2021-07-16T09:49:16+02:00</time>
      </trkpt>
      <trkpt lat="44.86582" lon="-0.06781">
        <ele>31</ele>
        <time>2021-07-16T09:49:21+02:00</time>
      </trkpt>
      <trkpt lat="44.86524" lon="-0.06818">
        <ele>28</ele>
        <time>2021-07-16T09:49:26+02:00</time>
      </trkpt>
      <trkpt lat="44.8651" lon="-0.06813">
        <ele>28</ele>
        <time>2021-07-16T09:49:31+02:00</time>
      </trkpt>
      <trkpt lat="44.86507" lon="-0.06799">
        <ele>28</ele>
        <time>2021-07-16T09:49:36+02:00</time>
      </trkpt>
      <trkpt lat="44.86501" lon="-0.06756">
        <ele>29</ele>
        <time>2021-07-16T09:49:41+02:00</time>
      </trkpt>
      <trkpt lat="44.86472" lon="-0.06628">
        <ele>29</ele>
        <time>2021-07-16T09:49:46+02:00</time>
      </trkpt>
      <trkpt lat="44.86434" lon="-0.06489">
        <ele>27</ele>
        <time>2021-07-16T09:49:51+02:00</time>
      </trkpt>
      <trkpt lat="44.86385" lon="-0.06442">
        <ele>25</ele>
        <time>2021-07-16T09:49:56+02:00</time>
      </trkpt>
      <trkpt lat="44.86386" lon="-0.06435">
        <ele>25</ele>
        <time>2021-07-16T09:50:01+02:00</time>
      </trkpt>
      <trkpt lat="44.86399" lon="-0.06429">
        <ele>26</ele>
        <time>2021-07-16T09:50:06+02:00</time>
      </trkpt>
      <trkpt lat="44.86413" lon="-0.06412">
        <ele>26</ele>
        <time>2021-07-16T09:50:11+02:00</time>
      </trkpt>
      <trkpt lat="44.86416" lon="-0.06391">
        <ele>26</ele>
        <time>2021-07-16T09:50:16+02:00</time>
      </trkpt>
      <trkpt lat="44.86416" lon="-0.06369">
        <ele>27</ele>
        <time>2021-07-16T09:50:21+02:00</time>
      </trkpt>
      <trkpt lat="44.86411" lon="-0.06336">
        <ele>27</ele>
        <time>2021-07-16T09:50:26+02:00</time>
      </trkpt>
      <trkpt lat="44.86405" lon="-0.06247">
        <ele>26</ele>
        <time>2021-07-16T09:50:31+02:00</time>
      </trkpt>
      <trkpt lat="44.86393" lon="-0.06162">
        <ele>26</ele>
        <time>2021-07-16T09:50:36+02:00</time>
      </trkpt>
      <trkpt lat="44.86394" lon="-0.06125">
        <ele>26</ele>
        <time>2021-07-16T09:50:41+02:00</time>
      </trkpt>
      <trkpt lat="44.86398" lon="-0.06091">
        <ele>27</ele>
        <time>2021-07-16T09:50:46+02:00</time>
      </trkpt>
      <trkpt lat="44.86435" lon="-0.0609">
        <ele>29</ele>
        <time>2021-07-16T09:50:51+02:00</time>
      </trkpt>
      <trkpt lat="44.86512" lon="-0.06085">
        <ele>32</ele>
        <time>2021-07-16T09:50:56+02:00</time>
      </trkpt>
      <trkpt lat="44.86539" lon="-0.06082">
        <ele>34</ele>
        <time>2021-07-16T09:51:01+02:00</time>
      </trkpt>
      <trkpt lat="44.86573" lon="-0.06073">
        <ele>37</ele>
        <time>2021-07-16T09:51:06+02:00</time>
      </trkpt>
      <trkpt lat="44.86604" lon="-0.06074">
        <ele>41</ele>
        <time>2021-07-16T09:51:11+02:00</time>
      </trkpt>
      <trkpt lat="44.86672" lon="-0.06057">
        <ele>51</ele>
        <time>2021-07-16T09:51:16+02:00</time>
      </trkpt>
      <trkpt lat="44.86682" lon="-0.06053">
        <ele>52</ele>
        <time>2021-07-16T09:51:21+02:00</time>
      </trkpt>
      <trkpt lat="44.86743" lon="-0.06013">
        <ele>56</ele>
        <time>2021-07-16T09:51:26+02:00</time>
      </trkpt>
      <trkpt lat="44.86816" lon="-0.05951">
        <ele>50</ele>
        <time>2021-07-16T09:51:31+02:00</time>
      </trkpt>
      <trkpt lat="44.86832" lon="-0.05948">
        <ele>50</ele>
        <time>2021-07-16T09:51:36+02:00</time>
      </trkpt>
      <trkpt lat="44.86845" lon="-0.05958">
        <ele>51</ele>
        <time>2021-07-16T09:51:41+02:00</time>
      </trkpt>
      <trkpt lat="44.86896" lon="-0.0602">
        <ele>54</ele>
        <time>2021-07-16T09:51:46+02:00</time>
      </trkpt>
      <trkpt lat="44.86937" lon="-0.06106">
        <ele>60</ele>
        <time>2021-07-16T09:51:51+02:00</time>
      </trkpt>
      <trkpt lat="44.8704" lon="-0.06076">
        <ele>64</ele>
        <time>2021-07-16T09:51:56+02:00</time>
      </trkpt>
      <trkpt lat="44.87127" lon="-0.06076">
        <ele>75</ele>
        <time>2021-07-16T09:52:01+02:00</time>
      </trkpt>
      <trkpt lat="44.87136" lon="-0.06067">
        <ele>76</ele>
        <time>2021-07-16T09:52:06+02:00</time>
      </trkpt>
      <trkpt lat="44.87152" lon="-0.06068">
        <ele>78</ele>
        <time>2021-07-16T09:52:11+02:00</time>
      </trkpt>
      <trkpt lat="44.87174" lon="-0.06183">
        <ele>79</ele>
        <time>2021-07-16T09:52:16+02:00</time>
      </trkpt>
      <trkpt lat="44.87205" lon="-0.06251">
        <ele>81</ele>
        <time>2021-07-16T09:52:21+02:00</time>
      </trkpt>
      <trkpt lat="44.87094" lon="-0.06322">
        <ele>81</ele>
        <time>2021-07-16T09:52:26+02:00</time>
      </trkpt>
      <trkpt lat="44.87047" lon="-0.06365">
        <ele>83</ele>
        <time>2021-07-16T09:52:31+02:00</time>
      </trkpt>
      <trkpt lat="44.86743" lon="-0.06612">
        <ele>66</ele>
        <time>2021-07-16T09:52:36+02:00</time>
      </trkpt>
      <trkpt lat="44.8671" lon="-0.06659">
        <ele>53</ele>
        <time>2021-07-16T09:52:41+02:00</time>
      </trkpt>
      <trkpt lat="44.86701" lon="-0.06695">
        <ele>49</ele>
        <time>2021-07-16T09:52:46+02:00</time>
      </trkpt>
      <trkpt lat="44.86742" lon="-0.06726">
        <ele>52</ele>
        <time>2021-07-16T09:52:51+02:00</time>
      </trkpt>
      <trkpt lat="44.86752" lon="-0.06723">
        <ele>53</ele>
        <time>2021-07-16T09:52:56+02:00</time>
      </trkpt>
      <trkpt lat="44.86938" lon="-0.06549">
        <ele>94</ele>
        <time>2021-07-16T09:53:01+02:00</time>
      </trkpt>
      <trkpt lat="44.86953" lon="-0.06546">
        <ele>94</ele>
        <time>2021-07-16T09:53:06+02:00</time>
      </trkpt>
      <trkpt lat="44.87017" lon="-0.06517">
        <ele>92</ele>
        <time>2021-07-16T09:53:11+02:00</time>
      </trkpt>
      <trkpt lat="44.87047" lon="-0.06527">
        <ele>91</ele>
        <time>2021-07-16T09:53:16+02:00</time>
      </trkpt>
      <trkpt lat="44.87163" lon="-0.06453">
        <ele>87</ele>
        <time>2021-07-16T09:53:21+02:00</time>
      </trkpt>
      <trkpt lat="44.87182" lon="-0.06444">
        <ele>86</ele>
        <time>2021-07-16T09:53:26+02:00</time>
      </trkpt>
      <trkpt lat="44.87277" lon="-0.06375">
        <ele>85</ele>
        <time>2021-07-16T09:53:31+02:00</time>
      </trkpt>
      <trkpt lat="44.87404" lon="-0.06359">
        <ele>85</ele>
        <time>2021-07-16T09:53:36+02:00</time>
      </trkpt>
      <trkpt lat="44.87428" lon="-0.06345">
        <ele>85</ele>
        <time>2021-07-16T09:53:41+02:00</time>
      </trkpt>
      <trkpt lat="44.87501" lon="-0.06269">
        <ele>84</ele>
        <time>2021-07-16T09:53:46+02:00</time>
      </trkpt>
      <trkpt lat="44.87564" lon="-0.06266">
        <ele>84</ele>
        <time>2021-07-16T09:53:51+02:00</time>
      </trkpt>
      <trkpt lat="44.87578" lon="-0.06272">
        <ele>85</ele>
        <time>2021-07-16T09:53:56+02:00</time>
      </trkpt>
      <trkpt lat="44.87555" lon="-0.06211">
        <ele>81</ele>
        <time>2021-07-16T09:54:01+02:00</time>
      </trkpt>
      <trkpt lat="44.87544" lon="-0.06195">
        <ele>80</ele>
        <time>2021-07-16T09:54:06+02:00</time>
      </trkpt>
      <trkpt lat="44.8753" lon="-0.06168">
        <ele>78</ele>
        <time>2021-07-16T09:54:11+02:00</time>
      </trkpt>
      <trkpt lat="44.87508" lon="-0.06109">
        <ele>75</ele>
        <time>2021-07-16T09:54:16+02:00</time>
      </trkpt>
      <trkpt lat="44.8749" lon="-0.06041">
        <ele>70</ele>
        <time>2021-07-16T09:54:21+02:00</time>
      </trkpt>
      <trkpt lat="44.87477" lon="-0.05806">
        <ele>61</ele>
        <time>2021-07-16T09:54:26+02:00</time>
      </trkpt>
      <trkpt lat="44.8748" lon="-0.05774">
        <ele>60</ele>
        <time>2021-07-16T09:54:31+02:00</time>
      </trkpt>
      <trkpt lat="44.87487" lon="-0.05731">
        <ele>60</ele>
        <time>2021-07-16T09:54:36+02:00</time>
      </trkpt>
      <trkpt lat="44.87486" lon="-0.05686">
        <ele>59</ele>
        <time>2021-07-16T09:54:41+02:00</time>
      </trkpt>
      <trkpt lat="44.87517" lon="-0.05702">
        <ele>60</ele>
        <time>2021-07-16T09:54:46+02:00</time>
      </trkpt>
      <trkpt lat="44.87588" lon="-0.05718">
        <ele>57</ele>
        <time>2021-07-16T09:54:51+02:00</time>
      </trkpt>
      <trkpt lat="44.87646" lon="-0.05746">
        <ele>56</ele>
        <time>2021-07-16T09:54:56+02:00</time>
      </trkpt>
      <trkpt lat="44.87669" lon="-0.05752">
        <ele>55</ele>
        <time>2021-07-16T09:55:01+02:00</time>
      </trkpt>
      <trkpt lat="44.87696" lon="-0.05753">
        <ele>57</ele>
        <time>2021-07-16T09:55:06+02:00</time>
      </trkpt>
      <trkpt lat="44.87707" lon="-0.05765">
        <ele>57</ele>
        <time>2021-07-16T09:55:11+02:00</time>
      </trkpt>
      <trkpt lat="44.87708" lon="-0.05741">
        <ele>58</ele>
        <time>2021-07-16T09:55:16+02:00</time>
      </trkpt>
      <trkpt lat="44.87815" lon="-0.05695">
        <ele>74</ele>
        <time>2021-07-16T09:55:21+02:00</time>
      </trkpt>
      <trkpt lat="44.8782" lon="-0.05693">
        <ele>75</ele>
        <time>2021-07-16T09:55:26+02:00</time>
      </trkpt>
      <trkpt lat="44.8782" lon="-0.05681">
        <ele>75</ele>
        <time>2021-07-16T09:55:31+02:00</time>
      </trkpt>
      <trkpt lat="44.87853" lon="-0.05668">
        <ele>79</ele>
        <time>2021-07-16T09:55:36+02:00</time>
      </trkpt>
      <trkpt lat="44.87862" lon="-0.05666">
        <ele>80</ele>
        <time>2021-07-16T09:55:41+02:00</time>
      </trkpt>
      <trkpt lat="44.87864" lon="-0.05655">
        <ele>81</ele>
        <time>2021-07-16T09:55:46+02:00</time>
      </trkpt>
      <trkpt lat="44.87825" lon="-0.05601">
        <ele>79</ele>
        <time>2021-07-16T09:55:51+02:00</time>
      </trkpt>
      <trkpt lat="44.87817" lon="-0.05573">
        <ele>79</ele>
        <time>2021-07-16T09:55:56+02:00</time>
      </trkpt>
      <trkpt lat="44.8778" lon="-0.0545">
        <ele>78</ele>
        <time>2021-07-16T09:56:01+02:00</time>
      </trkpt>
      <trkpt lat="44.87756" lon="-0.0543">
        <ele>75</ele>
        <time>2021-07-16T09:56:06+02:00</time>
      </trkpt>
      <trkpt lat="44.87744" lon="-0.05401">
        <ele>75</ele>
        <time>2021-07-16T09:56:11+02:00</time>
      </trkpt>
      <trkpt lat="44.87717" lon="-0.0538">
        <ele>71</ele>
        <time>2021-07-16T09:56:16+02:00</time>
      </trkpt>
      <trkpt lat="44.87708" lon="-0.05368">
        <ele>70</ele>
        <time>2021-07-16T09:56:21+02:00</time>
      </trkpt>
      <trkpt lat="44.87711" lon="-0.0535">
        <ele>72</ele>
        <time>2021-07-16T09:56:26+02:00</time>
      </trkpt>
      <trkpt lat="44.87726" lon="-0.05377">
        <ele>73</ele>
        <time>2021-07-16T09:56:31+02:00</time>
      </trkpt>
      <trkpt lat="44.87745" lon="-0.05385">
        <ele>76</ele>
        <time>2021-07-16T09:56:36+02:00</time>
      </trkpt>
      <trkpt lat="44.87861" lon="-0.05398">
        <ele>86</ele>
        <time>2021-07-16T09:56:41+02:00</time>
      </trkpt>
      <trkpt lat="44.87895" lon="-0.05408">
        <ele>86</ele>
        <time>2021-07-16T09:56:46+02:00</time>
      </trkpt>
      <trkpt lat="44.87956" lon="-0.05432">
        <ele>85</ele>
        <time>2021-07-16T09:56:51+02:00</time>
      </trkpt>
      <trkpt lat="44.87997" lon="-0.05432">
        <ele>84</ele>
        <time>2021-07-16T09:56:56+02:00</time>
      </trkpt>
      <trkpt lat="44.88019" lon="-0.05443">
        <ele>82</ele>
        <time>2021-07-16T09:57:01+02:00</time>
      </trkpt>
      <trkpt lat="44.88036" lon="-0.05479">
        <ele>83</ele>
        <time>2021-07-16T09:57:06+02:00</time>
      </trkpt>
      <trkpt lat="44.88042" lon="-0.05515">
        <ele>84</ele>
        <time>2021-07-16T09:57:11+02:00</time>
      </trkpt>
      <trkpt lat="44.88082" lon="-0.05604">
        <ele>86</ele>
        <time>2021-07-16T09:57:16+02:00</time>
      </trkpt>
      <trkpt lat="44.8809" lon="-0.05656">
        <ele>89</ele>
        <time>2021-07-16T09:57:21+02:00</time>
      </trkpt>
      <trkpt lat="44.88091" lon="-0.05726">
        <ele>91</ele>
        <time>2021-07-16T09:57:26+02:00</time>
      </trkpt>
      <trkpt lat="44.88096" lon="-0.05762">
        <ele>91</ele>
        <time>2021-07-16T09:57:31+02:00</time>
      </trkpt>
      <trkpt lat="44.88146" lon="-0.0578">
        <ele>92</ele>
        <time>2021-07-16T09:57:36+02:00</time>
      </trkpt>
      <trkpt lat="44.88185" lon="-0.05786">
        <ele>93</ele>
        <time>2021-07-16T09:57:41+02:00</time>
      </trkpt>
      <trkpt lat="44.88234" lon="-0.0578">
        <ele>94</ele>
        <time>2021-07-16T09:57:46+02:00</time>
      </trkpt>
      <trkpt lat="44.88274" lon="-0.05767">
        <ele>94</ele>
        <time>2021-07-16T09:57:51+02:00</time>
      </trkpt>
      <trkpt lat="44.88295" lon="-0.05767">
        <ele>94</ele>
        <time>2021-07-16T09:57:56+02:00</time>
      </trkpt>
      <trkpt lat="44.88343" lon="-0.05785">
        <ele>93</ele>
        <time>2021-07-16T09:58:01+02:00</time>
      </trkpt>
      <trkpt lat="44.88404" lon="-0.05786">
        <ele>92</ele>
        <time>2021-07-16T09:58:06+02:00</time>
      </trkpt>
      <trkpt lat="44.88378" lon="-0.05686">
        <ele>88</ele>
        <time>2021-07-16T09:58:11+02:00</time>
      </trkpt>
      <trkpt lat="44.88348" lon="-0.05557">
        <ele>83</ele>
        <time>2021-07-16T09:58:16+02:00</time>
      </trkpt>
      <trkpt lat="44.88341" lon="-0.05529">
        <ele>82</ele>
        <time>2021-07-16T09:58:21+02:00</time>
      </trkpt>
      <trkpt lat="44.88326" lon="-0.05496">
        <ele>80</ele>
        <time>2021-07-16T09:58:26+02:00</time>
      </trkpt>
      <trkpt lat="44.88308" lon="-0.05413">
        <ele>73</ele>
        <time>2021-07-16T09:58:31+02:00</time>
      </trkpt>
      <trkpt lat="44.8831" lon="-0.05277">
        <ele>64</ele>
        <time>2021-07-16T09:58:36+02:00</time>
      </trkpt>
      <trkpt lat="44.88314" lon="-0.05239">
        <ele>62</ele>
        <time>2021-07-16T09:58:41+02:00</time>
      </trkpt>
      <trkpt lat="44.88329" lon="-0.05208">
        <ele>62</ele>
        <time>2021-07-16T09:58:46+02:00</time>
      </trkpt>
      <trkpt lat="44.88354" lon="-0.05156">
        <ele>59</ele>
        <time>2021-07-16T09:58:51+02:00</time>
      </trkpt>
      <trkpt lat="44.88371" lon="-0.05075">
        <ele>55</ele>
        <time>2021-07-16T09:58:56+02:00</time>
      </trkpt>
      <trkpt lat="44.88376" lon="-0.05021">
        <ele>52</ele>
        <time>2021-07-16T09:59:01+02:00</time>
      </trkpt>
      <trkpt lat="44.88437" lon="-0.05029">
        <ele>52</ele>
        <time>2021-07-16T09:59:06+02:00</time>
      </trkpt>
      <trkpt lat="44.88483" lon="-0.0506">
        <ele>53</ele>
        <time>2021-07-16T09:59:11+02:00</time>
      </trkpt>
      <trkpt lat="44.88519" lon="-0.05099">
        <ele>54</ele>
        <time>2021-07-16T09:59:16+02:00</time>
      </trkpt>
      <trkpt lat="44.88535" lon="-0.05149">
        <ele>56</ele>
        <time>2021-07-16T09:59:21+02:00</time>
      </trkpt>
      <trkpt lat="44.88543" lon="-0.05181">
        <ele>57</ele>
        <time>2021-07-16T09:59:26+02:00</time>
      </trkpt>
      <trkpt lat="44.88604" lon="-0.05344">
        <ele>64</ele>
        <time>2021-07-16T09:59:31+02:00</time>
      </trkpt>
      <trkpt lat="44.88609" lon="-0.05409">
        <ele>66</ele>
        <time>2021-07-16T09:59:36+02:00</time>
      </trkpt>
      <trkpt lat="44.88621" lon="-0.05558">
        <ele>76</ele>
        <time>2021-07-16T09:59:41+02:00</time>
      </trkpt>
      <trkpt lat="44.88638" lon="-0.05639">
        <ele>84</ele>
        <time>2021-07-16T09:59:46+02:00</time>
      </trkpt>
      <trkpt lat="44.88635" lon="-0.05672">
        <ele>87</ele>
        <time>2021-07-16T09:59:51+02:00</time>
      </trkpt>
      <trkpt lat="44.88641" lon="-0.05773">
        <ele>88</ele>
        <time>2021-07-16T09:59:56+02:00</time>
      </trkpt>
      <trkpt lat="44.88635" lon="-0.05783">
        <ele>88</ele>
        <time>2021-07-16T10:00:01+02:00</time>
      </trkpt>
      <trkpt lat="44.88508" lon="-0.058">
        <ele>93</ele>
        <time>2021-07-16T10:00:06+02:00</time>
      </trkpt>
      <trkpt lat="44.88503" lon="-0.05847">
        <ele>94</ele>
        <time>2021-07-16T10:00:11+02:00</time>
      </trkpt>
      <trkpt lat="44.88491" lon="-0.05861">
        <ele>94</ele>
        <time>2021-07-16T10:00:16+02:00</time>
      </trkpt>
      <trkpt lat="44.88364" lon="-0.05882">
        <ele>93</ele>
        <time>2021-07-16T10:00:21+02:00</time>
      </trkpt>
      <trkpt lat="44.88337" lon="-0.05894">
        <ele>94</ele>
        <time>2021-07-16T10:00:26+02:00</time>
      </trkpt>
      <trkpt lat="44.88304" lon="-0.05936">
        <ele>95</ele>
        <time>2021-07-16T10:00:31+02:00</time>
      </trkpt>
      <trkpt lat="44.88293" lon="-0.05947">
        <ele>95</ele>
        <time>2021-07-16T10:00:36+02:00</time>
      </trkpt>
      <trkpt lat="44.88151" lon="-0.05997">
        <ele>95</ele>
        <time>2021-07-16T10:00:41+02:00</time>
      </trkpt>
      <trkpt lat="44.88111" lon="-0.06024">
        <ele>94</ele>
        <time>2021-07-16T10:00:46+02:00</time>
      </trkpt>
      <trkpt lat="44.88034" lon="-0.06122">
        <ele>94</ele>
        <time>2021-07-16T10:00:51+02:00</time>
      </trkpt>
      <trkpt lat="44.87979" lon="-0.06185">
        <ele>93</ele>
        <time>2021-07-16T10:00:56+02:00</time>
      </trkpt>
      <trkpt lat="44.87964" lon="-0.06193">
        <ele>92</ele>
        <time>2021-07-16T10:01:01+02:00</time>
      </trkpt>
      <trkpt lat="44.87963" lon="-0.06207">
        <ele>92</ele>
        <time>2021-07-16T10:01:06+02:00</time>
      </trkpt>
      <trkpt lat="44.87951" lon="-0.0625">
        <ele>92</ele>
        <time>2021-07-16T10:01:11+02:00</time>
      </trkpt>
      <trkpt lat="44.87939" lon="-0.06274">
        <ele>91</ele>
        <time>2021-07-16T10:01:16+02:00</time>
      </trkpt>
      <trkpt lat="44.87909" lon="-0.06345">
        <ele>90</ele>
        <time>2021-07-16T10:01:21+02:00</time>
      </trkpt>
      <trkpt lat="44.87904" lon="-0.06362">
        <ele>90</ele>
        <time>2021-07-16T10:01:26+02:00</time>
      </trkpt>
      <trkpt lat="44.87904" lon="-0.06412">
        <ele>90</ele>
        <time>2021-07-16T10:01:31+02:00</time>
      </trkpt>
      <trkpt lat="44.87882" lon="-0.06652">
        <ele>59</ele>
        <time>2021-07-16T10:01:36+02:00</time>
      </trkpt>
      <trkpt lat="44.87882" lon="-0.0666">
        <ele>58</ele>
        <time>2021-07-16T10:01:41+02:00</time>
      </trkpt>
      <trkpt lat="44.87848" lon="-0.06674">
        <ele>60</ele>
        <time>2021-07-16T10:01:46+02:00</time>
      </trkpt>
      <trkpt lat="44.87815" lon="-0.0671">
        <ele>56</ele>
        <time>2021-07-16T10:01:51+02:00</time>
      </trkpt>
      <trkpt lat="44.87812" lon="-0.06721">
        <ele>55</ele>
        <time>2021-07-16T10:01:56+02:00</time>
      </trkpt>
      <trkpt lat="44.87824" lon="-0.06848">
        <ele>46</ele>
        <time>2021-07-16T10:02:01+02:00</time>
      </trkpt>
      <trkpt lat="44.87829" lon="-0.0689">
        <ele>46</ele>
        <time>2021-07-16T10:02:06+02:00</time>
      </trkpt>
      <trkpt lat="44.87818" lon="-0.06898">
        <ele>46</ele>
        <time>2021-07-16T10:02:11+02:00</time>
      </trkpt>
      <trkpt lat="44.87819" lon="-0.06912">
        <ele>46</ele>
        <time>2021-07-16T10:02:16+02:00</time>
      </trkpt>
    </trkseg>
  </trk>
</gpx>